Time;durP1;ratioP1;P1;durP2;ratioP2;P2;SDS_P1;SDS_P2;PMS_P1;PMS_P2;Temp;Humidity;BMP_temperature;BMP_pressure;BME280_temperature;BME280_humidity;BME280_pressure;Samples;Min_cycle;Max_cycle;Signal;HPM_P1;HPM_P2
2024/03/08 00:01:53;;;;;;;18.88;11.55;;;;;;;5.06;88.58;94755.31;5110624;28;20019;-67
2024/03/08 00:04:18;;;;;;;20.33;12.88;;;;;;;5.10;88.59;94759.38;5112156;28;20134;-67
2024/03/08 00:06:45;;;;;;;18.95;11.30;;;;;;;5.16;88.16;94756.41;5109402;28;20520;-68
2024/03/08 00:09:11;;;;;;;18.42;12.55;;;;;;;5.18;87.55;94754.53;5111590;28;20032;-67
2024/03/08 00:11:37;;;;;;;17.98;11.75;;;;;;;5.10;87.76;94731.06;5110448;28;20027;-67
2024/03/08 00:14:02;;;;;;;19.85;11.55;;;;;;;5.30;87.34;94756.38;5108846;28;20462;-67
2024/03/08 00:16:28;;;;;;;18.13;11.63;;;;;;;5.33;87.67;94755.34;5126742;27;20455;-67
2024/03/08 00:18:54;;;;;;;20.45;12.30;;;;;;;5.13;88.03;94749.69;5132359;27;20026;-67
2024/03/08 00:21:19;;;;;;;21.50;13.27;;;;;;;5.06;88.81;94750.16;5130837;27;20019;-67
2024/03/08 00:23:45;;;;;;;21.00;12.93;;;;;;;5.03;88.63;94750.38;5122911;27;20112;-67
2024/03/08 00:26:10;;;;;;;24.30;14.30;;;;;;;4.98;88.72;94739.53;5111567;28;20088;-67
2024/03/08 00:28:37;;;;;;;20.65;12.85;;;;;;;5.15;88.36;94749.59;5111663;28;20043;-67
2024/03/08 00:31:02;;;;;;;20.58;13.13;;;;;;;5.30;87.32;94752.97;5093288;28;20020;-66
2024/03/08 00:33:27;;;;;;;19.73;13.55;;;;;;;5.36;86.76;94747.44;5108725;28;20035;-67
2024/03/08 00:35:54;;;;;;;19.50;12.50;;;;;;;5.29;87.52;94746.16;5125296;27;20035;-67
2024/03/08 00:38:19;;;;;;;19.77;12.52;;;;;;;5.32;87.01;94736.50;5131668;27;20039;-67
2024/03/08 00:40:45;;;;;;;19.42;12.55;;;;;;;5.35;87.06;94732.91;5113528;28;20045;-67
2024/03/08 00:43:10;;;;;;;20.00;12.38;;;;;;;5.27;87.88;94728.22;5115038;27;20035;-67
2024/03/08 00:45:36;;;;;;;19.90;12.75;;;;;;;5.26;87.80;94723.97;5113331;28;20031;-67
2024/03/08 00:48:03;;;;;;;20.00;12.18;;;;;;;5.32;87.83;94721.03;5130529;28;20035;-67
2024/03/08 00:50:28;;;;;;;19.95;12.85;;;;;;;5.29;87.75;94726.38;5125423;28;20112;-67
2024/03/08 00:52:54;;;;;;;21.70;13.88;;;;;;;5.34;87.52;94721.75;5120541;28;20481;-67
2024/03/08 00:55:19;;;;;;;22.58;13.73;;;;;;;5.32;86.65;94705.59;5113355;28;20464;-68
2024/03/08 00:57:45;;;;;;;19.67;13.48;;;;;;;5.36;86.41;94719.91;5113173;28;20043;-67
2024/03/08 01:00:11;;;;;;;19.70;12.70;;;;;;;5.32;86.57;94710.75;5113388;28;20036;-67
2024/03/08 01:02:38;;;;;;;19.42;12.25;;;;;;;5.27;86.90;94714.53;5097478;28;20016;-67
2024/03/08 01:05:07;;;;;;;17.88;11.50;;;;;;;5.12;87.19;94709.41;5114031;28;20023;-67
2024/03/08 01:07:35;;;;;;;20.77;12.05;;;;;;;4.99;87.29;94702.56;5115186;28;20019;-67
2024/03/08 01:10:02;;;;;;;19.60;12.63;;;;;;;5.01;87.80;94711.81;5112137;28;20085;-67
2024/03/08 01:12:28;;;;;;;22.50;13.45;;;;;;;4.99;88.19;94710.28;5113893;28;20063;-67
2024/03/08 01:14:53;;;;;;;20.35;13.57;;;;;;;4.96;88.48;94706.16;5096740;28;20038;-67
2024/03/08 01:17:19;;;;;;;22.83;14.48;;;;;;;5.04;88.43;94700.50;5114919;27;20019;-67
2024/03/08 01:19:44;;;;;;;21.20;13.85;;;;;;;5.08;88.21;94699.41;5076142;28;20505;-68
2024/03/08 01:22:10;;;;;;;20.95;13.40;;;;;;;5.09;88.33;94699.28;5093390;28;20043;-68
2024/03/08 01:24:36;;;;;;;19.88;12.25;;;;;;;4.64;89.07;94692.69;5107102;27;20113;-67
2024/03/08 01:27:02;;;;;;;20.33;11.18;;;;;;;4.47;90.75;94699.69;5112197;28;20046;-67
2024/03/08 01:29:29;;;;;;;18.55;11.93;;;;;;;3.92;92.59;94664.44;5096831;28;20036;-67
2024/03/08 01:31:56;;;;;;;15.93;10.60;;;;;;;4.35;92.69;94697.06;5114933;27;20524;-66
2024/03/08 01:34:22;;;;;;;15.88;9.82;;;;;;;4.20;93.24;94685.91;5114967;27;20035;-67
2024/03/08 01:36:48;;;;;;;14.00;9.32;;;;;;;4.01;94.11;94694.75;5096542;28;20034;-67
2024/03/08 01:39:13;;;;;;;18.00;10.25;;;;;;;3.99;94.91;94694.00;5114959;28;20035;-67
2024/03/08 01:41:40;;;;;;;12.45;8.20;;;;;;;3.84;95.67;94689.75;5094874;28;20480;-67
2024/03/08 01:44:07;;;;;;;15.57;9.18;;;;;;;3.78;96.17;94687.53;5114563;28;20028;-67
2024/03/08 01:46:32;;;;;;;13.45;8.50;;;;;;;3.80;96.19;94699.38;5113272;28;20024;-67
2024/03/08 01:48:57;;;;;;;13.18;7.63;;;;;;;3.70;96.67;94690.53;5096305;28;20508;-67
2024/03/08 01:51:23;;;;;;;14.00;8.00;;;;;;;3.66;97.22;94685.69;5091921;28;20521;-67
2024/03/08 01:53:48;;;;;;;14.52;8.30;;;;;;;3.67;96.89;94677.06;5075872;28;20085;-67
2024/03/08 01:56:14;;;;;;;12.10;7.68;;;;;;;3.64;97.67;94684.94;5075769;28;20032;-67
2024/03/08 01:58:42;;;;;;;13.35;7.85;;;;;;;3.64;97.83;94683.19;5102970;28;20027;-67
2024/03/08 02:01:07;;;;;;;10.23;7.03;;;;;;;3.72;97.56;94693.03;5111508;28;20115;-67
2024/03/08 02:03:32;;;;;;;9.70;7.10;;;;;;;3.68;97.62;94694.16;5095896;28;20058;-67
2024/03/08 02:06:01;;;;;;;9.05;6.38;;;;;;;3.62;97.74;94689.34;5114071;28;20072;-67
2024/03/08 02:08:26;;;;;;;9.48;6.45;;;;;;;3.80;97.59;94685.72;5117928;27;20462;-67
2024/03/08 02:10:51;;;;;;;7.78;5.68;;;;;;;3.73;97.48;94692.13;5111595;27;20032;-67
2024/03/08 02:13:17;;;;;;;7.85;5.57;;;;;;;3.91;97.17;94687.66;5123362;27;20042;-67
2024/03/08 02:16:00;;;;;;;9.50;6.40;;;;;;;4.17;94.74;94689.50;5133359;27;20023;-67
2024/03/08 02:18:26;;;;;;;6.82;4.13;;;;;;;4.12;93.27;94680.41;5124525;27;20027;-67
2024/03/08 02:20:53;;;;;;;5.78;4.07;;;;;;;4.14;93.21;94689.69;5116112;27;20027;-67
2024/03/08 02:23:21;;;;;;;7.03;4.20;;;;;;;4.21;93.11;94685.03;5115700;27;20051;-67
2024/03/08 02:25:47;;;;;;;5.35;3.60;;;;;;;4.27;91.47;94694.94;5133015;27;20129;-67
2024/03/08 02:28:13;;;;;;;6.28;3.47;;;;;;;4.22;91.50;94687.47;5112327;27;20065;-67
2024/03/08 02:30:39;;;;;;;4.72;3.00;;;;;;;4.34;91.47;94695.38;5089694;28;20106;-68
2024/03/08 02:33:09;;;;;;;6.25;3.90;;;;;;;4.35;91.25;94689.34;5113605;28;20032;-67
2024/03/08 02:35:35;;;;;;;4.68;3.35;;;;;;;4.38;90.52;94695.13;5113648;27;20398;-67
2024/03/08 02:38:00;;;;;;;5.80;4.10;;;;;;;4.36;90.78;94691.81;5111052;28;20062;-67
2024/03/08 02:40:26;;;;;;;7.45;5.05;;;;;;;4.10;91.61;94687.41;5122847;27;20485;-67
2024/03/08 02:42:51;;;;;;;5.47;3.90;;;;;;;4.10;92.00;94697.69;5133871;27;20042;-67
2024/03/08 02:45:18;;;;;;;6.05;3.97;;;;;;;4.02;92.35;94686.09;5101567;28;20028;-67
2024/03/08 02:47:43;;;;;;;5.60;4.00;;;;;;;4.24;92.31;94707.97;5073921;28;20036;-67
2024/03/08 02:50:09;;;;;;;5.82;4.50;;;;;;;4.12;91.14;94695.84;5109922;27;20031;-67
2024/03/08 02:52:35;;;;;;;5.57;3.70;;;;;;;4.06;91.30;94701.34;5111910;28;20027;-67
2024/03/08 02:55:01;;;;;;;8.05;7.25;;;;;;;4.22;90.16;94709.81;5116850;27;20023;-67
2024/03/08 02:57:27;;;;;;;4.60;3.78;;;;;;;4.15;90.16;94714.50;5111793;28;20031;-67
2024/03/08 02:59:53;;;;;;;5.38;3.60;;;;;;;4.06;90.00;94698.78;5111787;28;20027;-67
2024/03/08 03:02:19;;;;;;;7.85;7.05;;;;;;;4.51;89.15;94714.94;5116420;27;20033;-67
2024/03/08 03:04:44;;;;;;;7.30;6.50;;;;;;;4.65;88.56;94712.34;5114109;27;20436;-67
2024/03/08 03:07:10;;;;;;;6.57;5.63;;;;;;;4.62;88.69;94715.94;5111748;28;20028;-67
2024/03/08 03:09:36;;;;;;;5.43;4.72;;;;;;;4.59;89.11;94705.84;5111502;28;20035;-67
2024/03/08 03:12:02;;;;;;;4.72;3.70;;;;;;;4.74;88.67;94714.38;5093002;28;20043;-67
2024/03/08 03:14:27;;;;;;;4.38;3.20;;;;;;;4.73;88.63;94712.72;5111677;28;20034;-67
2024/03/08 03:16:54;;;;;;;4.72;3.42;;;;;;;4.88;87.51;94718.69;5094489;28;20027;-67
2024/03/08 03:19:19;;;;;;;5.00;3.42;;;;;;;4.92;87.35;94718.38;5094635;28;20032;-67
2024/03/08 03:21:45;;;;;;;4.00;2.75;;;;;;;4.90;87.55;94721.97;5109929;28;20461;-67
2024/03/08 03:24:12;;;;;;;3.80;3.00;;;;;;;4.90;87.73;94724.53;5110789;28;20101;-67
2024/03/08 03:26:40;;;;;;;5.35;3.67;;;;;;;4.70;88.00;94712.91;5094436;28;20035;-67
2024/03/08 03:29:08;;;;;;;4.57;3.00;;;;;;;4.71;87.38;94709.44;5094927;28;20500;-67
2024/03/08 03:31:34;;;;;;;5.05;3.50;;;;;;;4.90;87.42;94724.53;5095788;28;20032;-67
2024/03/08 03:34:03;;;;;;;3.53;2.70;;;;;;;4.82;87.27;94712.16;5112597;28;20039;-67
2024/03/08 03:36:29;;;;;;;4.95;3.13;;;;;;;4.86;87.64;94726.47;5111123;28;20076;-67
2024/03/08 03:39:10;;;;;;;4.47;2.97;;;;;;;4.94;87.65;94733.75;5099034;27;20035;-67
2024/03/08 03:41:36;;;;;;;5.90;3.53;;;;;;;4.92;87.31;94736.41;5076128;28;20118;-67
2024/03/08 03:44:02;;;;;;;5.97;3.35;;;;;;;4.96;87.38;94738.78;5090636;28;20109;-67
2024/03/08 03:46:27;;;;;;;6.05;3.83;;;;;;;4.90;87.20;94729.69;5090650;28;20024;-67
2024/03/08 03:48:55;;;;;;;4.35;3.10;;;;;;;4.81;87.25;94722.53;5096142;28;20062;-67
2024/03/08 03:51:21;;;;;;;4.80;3.20;;;;;;;4.91;87.05;94745.06;5094381;28;20112;-68
2024/03/08 03:53:46;;;;;;;5.95;3.50;;;;;;;4.83;87.48;94731.00;5110852;28;20081;-67
2024/03/08 03:56:12;;;;;;;4.20;3.03;;;;;;;4.90;87.28;94737.41;5093696;28;20484;-68
2024/03/08 03:58:37;;;;;;;5.28;3.20;;;;;;;4.88;87.42;94736.69;5092056;28;20111;-67
2024/03/08 04:01:04;;;;;;;5.20;2.85;;;;;;;4.89;87.47;94743.50;5111618;27;20455;-67
2024/03/08 04:03:30;;;;;;;4.28;3.10;;;;;;;4.91;87.58;94745.06;5093697;28;20039;-67
2024/03/08 04:05:55;;;;;;;4.63;3.08;;;;;;;5.00;87.56;94746.22;5112069;28;20035;-67
2024/03/08 04:08:20;;;;;;;5.22;3.55;;;;;;;4.97;87.59;94756.72;5110201;28;20043;-67
2024/03/08 04:10:46;;;;;;;4.97;3.38;;;;;;;4.97;87.65;94750.75;5111947;28;20337;-67
2024/03/08 04:13:11;;;;;;;4.32;3.30;;;;;;;5.05;86.99;94751.09;5111789;28;20032;-67
2024/03/08 04:15:37;;;;;;;5.70;4.03;;;;;;;4.95;86.15;94743.09;5108939;28;20027;-67
2024/03/08 04:18:03;;;;;;;4.95;3.58;;;;;;;4.97;86.75;94751.56;5111590;28;20032;-67
2024/03/08 04:20:29;;;;;;;5.20;3.80;;;;;;;5.03;87.13;94756.34;5091840;28;20103;-67
2024/03/08 04:22:54;;;;;;;5.22;3.55;;;;;;;4.90;86.73;94747.72;5091230;28;20417;-67
2024/03/08 04:25:21;;;;;;;5.78;4.22;;;;;;;4.93;86.52;94750.09;5091114;28;20051;-67
2024/03/08 04:27:47;;;;;;;5.97;3.85;;;;;;;4.94;84.87;94772.34;5108560;28;20051;-67
2024/03/08 04:30:12;;;;;;;9.63;6.18;;;;;;;4.78;85.05;94772.47;5110668;28;20488;-67
2024/03/08 04:32:37;;;;;;;5.75;3.95;;;;;;;4.80;84.65;94767.22;5108641;28;20443;-67
2024/03/08 04:35:03;;;;;;;6.18;3.90;;;;;;;4.90;85.16;94776.03;5109078;28;20023;-67
2024/03/08 04:37:31;;;;;;;5.63;3.38;;;;;;;5.01;85.59;94773.63;5076168;28;20409;-67
2024/03/08 04:39:57;;;;;;;4.53;3.20;;;;;;;5.02;85.03;94777.03;5110066;28;20023;-67
2024/03/08 04:42:23;;;;;;;5.85;3.50;;;;;;;4.96;84.92;94769.66;5110036;28;20035;-67
2024/03/08 04:44:48;;;;;;;4.68;3.28;;;;;;;4.78;84.96;94780.19;5128340;28;20084;-67
2024/03/08 04:47:13;;;;;;;8.45;5.35;;;;;;;4.56;86.31;94784.97;5111812;28;20039;-67
2024/03/08 04:49:39;;;;;;;14.68;9.13;;;;;;;4.33;86.62;94774.28;5110169;28;20077;-67
2024/03/08 04:52:05;;;;;;;24.90;14.40;;;;;;;4.07;87.25;94783.53;5115461;28;20023;-67
2024/03/08 04:54:30;;;;;;;16.60;10.35;;;;;;;3.92;87.29;94786.97;5130475;28;20035;-67
2024/03/08 04:56:56;;;;;;;19.70;11.05;;;;;;;3.77;87.63;94791.25;5130275;27;20042;-68
2024/03/08 04:59:21;;;;;;;29.08;18.27;;;;;;;3.79;88.16;94790.25;5113472;28;20111;-67
2024/03/08 05:01:47;;;;;;;29.45;17.73;;;;;;;4.05;87.01;94792.25;5130285;28;20464;-67
2024/03/08 05:04:13;;;;;;;10.75;7.63;;;;;;;4.03;87.02;94795.72;5131484;27;20031;-67
2024/03/08 05:06:39;;;;;;;8.65;6.50;;;;;;;4.09;87.04;94783.44;5111737;28;20515;-68
2024/03/08 05:09:13;;;;;;;7.90;5.95;;;;;;;4.42;86.00;94794.31;5111364;28;20035;-68
2024/03/08 05:11:43;;;;;;;9.68;6.90;;;;;;;4.20;86.56;94797.31;5112173;28;20118;-67
2024/03/08 05:14:09;;;;;;;43.55;23.05;;;;;;;4.12;87.39;94794.34;5109936;28;20032;-67
2024/03/08 05:16:34;;;;;;;45.25;23.73;;;;;;;4.17;86.89;94801.81;5108697;28;20032;-68
2024/03/08 05:19:00;;;;;;;52.45;26.50;;;;;;;4.12;87.63;94801.25;5110916;28;20024;-67
2024/03/08 05:21:25;;;;;;;15.05;10.25;;;;;;;4.38;87.02;94812.63;5110978;28;20077;-67
2024/03/08 05:23:50;;;;;;;34.13;18.92;;;;;;;4.34;86.79;94793.94;5122667;28;20051;-67
2024/03/08 05:26:16;;;;;;;24.58;12.77;;;;;;;4.15;87.35;94819.06;5113226;28;20108;-67
2024/03/08 05:28:42;;;;;;;20.63;12.70;;;;;;;3.92;88.23;94818.63;5130206;28;20449;-67
2024/03/08 05:31:08;;;;;;;21.40;13.68;;;;;;;3.78;88.89;94821.16;5106182;28;20452;-68
2024/03/08 05:33:36;;;;;;;18.77;10.32;;;;;;;3.56;89.30;94812.06;5109659;28;20113;-67
2024/03/08 05:36:02;;;;;;;22.13;12.07;;;;;;;3.58;90.07;94830.81;5110863;28;20023;-67
2024/03/08 05:38:28;;;;;;;20.30;10.13;;;;;;;3.51;90.09;94824.38;5092640;28;20059;-67
2024/03/08 05:40:54;;;;;;;13.43;8.23;;;;;;;3.58;89.87;94830.81;5110575;28;20421;-67
2024/03/08 05:43:20;;;;;;;35.15;17.35;;;;;;;3.58;89.77;94835.13;5099000;28;20881;-67
2024/03/08 05:45:46;;;;;;;33.95;18.67;;;;;;;3.63;89.94;94837.44;5082268;28;20067;-67
2024/03/08 05:48:13;;;;;;;12.60;6.43;;;;;;;3.93;87.51;94843.44;5103295;27;20544;-67
2024/03/08 05:50:38;;;;;;;7.35;4.55;;;;;;;3.87;85.54;94830.09;5104473;28;20482;-68
2024/03/08 05:53:06;;;;;;;6.05;4.30;;;;;;;3.94;86.29;94847.66;5107914;28;20051;-68
2024/03/08 05:55:34;;;;;;;41.28;17.67;;;;;;;3.69;87.52;94847.38;5089966;28;20066;-68
2024/03/08 05:58:02;;;;;;;14.30;8.32;;;;;;;3.45;88.51;94849.53;5093039;28;20088;-67
2024/03/08 06:00:27;;;;;;;19.33;11.30;;;;;;;3.33;88.40;94856.16;5110575;27;20134;-67
2024/03/08 06:02:52;;;;;;;31.98;17.58;;;;;;;3.40;87.93;94864.38;5093818;28;20122;-67
2024/03/08 06:05:18;;;;;;;36.33;17.48;;;;;;;3.27;88.55;94854.75;5108404;27;20031;-67
2024/03/08 06:07:44;;;;;;;39.30;17.50;;;;;;;3.30;88.73;94864.03;5094271;28;20413;-67
2024/03/08 06:10:10;;;;;;;29.77;15.93;;;;;;;3.27;89.22;94865.03;5092976;27;20064;-67
2024/03/08 06:12:40;;;;;;;22.15;10.82;;;;;;;3.35;89.33;94869.78;5110533;27;20417;-67
2024/03/08 06:15:06;;;;;;;20.90;12.07;;;;;;;3.12;89.18;94858.97;5107719;28;20085;-67
2024/03/08 06:17:31;;;;;;;17.00;11.73;;;;;;;3.05;89.43;94849.94;5106693;28;20032;-67
2024/03/08 06:19:57;;;;;;;27.73;16.23;;;;;;;3.23;89.57;94885.81;5107081;28;20558;-67
2024/03/08 06:22:22;;;;;;;27.73;18.10;;;;;;;3.02;89.39;94844.97;5089326;28;20034;-67
2024/03/08 06:24:48;;;;;;;9.88;6.28;;;;;;;3.25;86.65;94884.00;5110501;27;20148;-67
2024/03/08 06:27:13;;;;;;;10.88;7.00;;;;;;;3.18;86.90;94880.13;5104327;28;20549;-67
2024/03/08 06:29:39;;;;;;;9.98;7.55;;;;;;;3.09;87.56;94884.81;5106187;28;20031;-67
2024/03/08 06:32:05;;;;;;;13.23;11.43;;;;;;;3.20;86.22;94880.84;5096141;28;20044;-67
2024/03/08 06:34:34;;;;;;;8.90;6.20;;;;;;;3.00;86.30;94874.19;5091841;28;20027;-67
2024/03/08 06:37:01;;;;;;;7.65;4.70;;;;;;;3.04;87.01;94889.34;5107385;28;20419;-67
2024/03/08 06:39:27;;;;;;;7.68;4.88;;;;;;;2.88;87.96;94901.31;5091342;28;20066;-67
2024/03/08 06:41:52;;;;;;;6.47;4.68;;;;;;;3.00;87.51;94907.56;5088864;28;20036;-67
2024/03/08 06:44:17;;;;;;;7.60;4.93;;;;;;;3.09;87.80;94896.78;5106351;28;20031;-67
2024/03/08 06:46:43;;;;;;;6.18;4.18;;;;;;;3.21;87.27;94897.91;5108718;27;20027;-67
2024/03/08 06:49:10;;;;;;;8.75;6.10;;;;;;;3.37;87.88;94893.59;5109671;28;20027;-67
2024/03/08 06:51:36;;;;;;;9.07;5.47;;;;;;;3.26;85.75;94890.78;5113177;27;20554;-67
2024/03/08 06:54:01;;;;;;;8.70;5.72;;;;;;;3.32;84.58;94901.56;5107049;27;20031;-66
2024/03/08 06:56:26;;;;;;;13.18;6.68;;;;;;;3.32;85.28;94891.31;5094494;27;20031;-67
2024/03/08 06:58:52;;;;;;;8.65;5.30;;;;;;;3.58;83.92;94899.34;5106952;28;20035;-67
2024/03/08 07:01:17;;;;;;;7.03;4.68;;;;;;;3.78;82.87;94917.06;5110994;27;20035;-67
2024/03/08 07:03:44;;;;;;;8.65;6.15;;;;;;;3.58;83.10;94900.16;5109122;28;20405;-66
2024/03/08 07:06:10;;;;;;;9.32;6.00;;;;;;;3.81;81.83;94909.19;5092037;27;20023;-68
2024/03/08 07:08:36;;;;;;;8.90;6.32;;;;;;;3.91;82.20;94914.66;5105470;28;20069;-69
2024/03/08 07:11:01;;;;;;;9.15;6.68;;;;;;;3.65;82.68;94913.53;5112558;27;20074;-67
2024/03/08 07:13:29;;;;;;;9.88;8.88;;;;;;;3.88;82.83;94914.84;5115224;27;20031;-67
2024/03/08 07:15:55;;;;;;;6.68;4.70;;;;;;;3.93;81.29;94910.28;5095874;28;20474;-67
2024/03/08 07:18:21;;;;;;;6.32;4.43;;;;;;;4.03;80.99;94911.41;5103554;27;20050;-68
2024/03/08 07:20:47;;;;;;;7.28;4.95;;;;;;;4.18;78.50;94908.88;5097119;28;20020;-68
2024/03/08 07:23:45;;;;;;;8.02;5.45;;;;;;;4.18;78.48;94921.75;5095346;27;20049;-68
2024/03/08 07:25:58;;;;;;;10.20;8.27;;;;;;;3.85;80.71;94917.56;5105394;28;20118;-68
2024/03/08 07:28:23;;;;;;;8.38;5.90;;;;;;;3.61;80.98;94911.19;5114569;27;20029;-67
2024/03/08 07:33:14;;;;;;;15.57;9.05;;;;;;;3.75;82.39;94908.69;5115775;27;20069;-68
2024/03/08 07:35:44;;;;;;;8.35;5.50;;;;;;;3.73;81.51;94921.66;5112106;28;20028;-68
2024/03/08 07:38:09;;;;;;;8.68;5.82;;;;;;;3.64;81.31;94918.72;5111051;28;20039;-67
2024/03/08 07:40:44;;;;;;;11.20;7.75;;;;;;;3.60;81.36;94920.66;5089741;28;20024;-68
2024/03/08 07:43:10;;;;;;;10.05;7.38;;;;;;;3.51;81.30;94914.28;5084076;28;20050;-67
2024/03/08 07:45:36;;;;;;;10.25;7.22;;;;;;;3.65;81.87;94928.09;5124437;27;20015;-67
2024/03/08 07:48:02;;;;;;;8.82;7.03;;;;;;;3.66;81.79;94910.03;5125888;27;20034;-67
2024/03/08 07:50:28;;;;;;;7.57;5.65;;;;;;;3.75;81.48;94924.13;5112952;27;20032;-69
2024/03/08 07:52:54;;;;;;;11.15;7.68;;;;;;;3.68;81.26;94917.69;5110342;27;20123;-67
2024/03/08 07:55:20;;;;;;;19.17;9.88;;;;;;;3.93;81.86;94922.31;5129223;27;20046;-68
2024/03/08 07:57:46;;;;;;;18.38;9.75;;;;;;;3.99;81.68;94925.34;5102656;28;20476;-68
2024/03/08 08:00:17;;;;;;;28.20;16.20;;;;;;;4.06;81.37;94922.44;5093481;28;20464;-68
2024/03/08 08:02:43;;;;;;;13.97;7.80;;;;;;;4.35;79.99;94924.22;5110761;28;20036;-67
2024/03/08 08:05:10;;;;;;;9.95;7.20;;;;;;;4.33;79.03;94931.19;5093668;28;20391;-68
2024/03/08 08:07:36;;;;;;;8.35;6.18;;;;;;;4.30;79.23;94920.25;5110498;28;20455;-68
2024/03/08 08:10:01;;;;;;;9.40;6.78;;;;;;;4.46;78.60;94916.72;5119664;27;20030;-67
2024/03/08 08:12:28;;;;;;;10.35;6.70;;;;;;;4.58;78.81;94929.78;5113904;27;20019;-68
2024/03/08 08:14:54;;;;;;;9.68;5.78;;;;;;;4.62;77.16;94926.94;5130650;27;20509;-68
2024/03/08 08:17:20;;;;;;;10.07;6.75;;;;;;;4.26;78.96;94919.56;5102339;27;20026;-68
2024/03/08 08:19:45;;;;;;;10.20;7.18;;;;;;;4.59;77.11;94908.28;5113687;27;20023;-68
2024/03/08 08:22:11;;;;;;;8.10;6.28;;;;;;;4.63;78.61;94920.06;5113772;27;20023;-69
2024/03/08 08:24:36;;;;;;;7.03;5.10;;;;;;;4.74;79.11;94922.03;5125291;27;20401;-67
2024/03/08 08:27:02;;;;;;;6.28;4.88;;;;;;;4.85;78.25;94923.06;5111557;28;20031;-68
2024/03/08 08:29:28;;;;;;;7.70;4.97;;;;;;;4.56;77.15;94917.00;5108761;28;20509;-68
2024/03/08 08:31:54;;;;;;;8.07;5.22;;;;;;;4.64;76.36;94924.28;5110497;28;20028;-68
2024/03/08 08:34:19;;;;;;;6.57;4.72;;;;;;;4.80;73.70;94919.09;5110952;28;20463;-67
2024/03/08 08:36:45;;;;;;;6.35;5.05;;;;;;;4.69;74.92;94914.56;5110080;28;20486;-69
2024/03/08 08:39:13;;;;;;;6.20;4.68;;;;;;;4.77;76.72;94909.81;5111685;28;20027;-68
2024/03/08 08:41:39;;;;;;;6.30;4.60;;;;;;;5.11;76.21;94918.09;5077027;28;20028;-68
2024/03/08 08:44:04;;;;;;;7.97;5.97;;;;;;;5.00;76.46;94912.75;5093241;28;20046;-68
2024/03/08 08:46:29;;;;;;;11.52;7.10;;;;;;;5.12;76.02;94924.91;5093129;28;20023;-67
2024/03/08 08:48:56;;;;;;;13.80;9.05;;;;;;;4.99;76.36;94917.09;5076286;28;20054;-68
2024/03/08 08:51:22;;;;;;;6.43;4.72;;;;;;;4.75;75.16;94892.78;5109924;28;20023;-69
2024/03/08 08:53:48;;;;;;;10.80;5.95;;;;;;;5.05;74.65;94915.91;5093209;28;20034;-68
2024/03/08 08:56:15;;;;;;;13.27;9.25;;;;;;;5.25;74.21;94912.94;5110013;28;20034;-69
2024/03/08 08:58:42;;;;;;;8.18;5.53;;;;;;;4.89;74.58;94914.22;5092920;28;20074;-68
2024/03/08 09:01:09;;;;;;;7.32;5.13;;;;;;;4.84;74.60;94915.41;5109974;28;20024;-68
2024/03/08 09:03:36;;;;;;;6.65;5.13;;;;;;;5.27;74.05;94908.53;5109954;28;20056;-67
2024/03/08 09:06:03;;;;;;;10.07;6.22;;;;;;;5.09;74.42;94896.75;5109982;28;20622;-68
2024/03/08 09:08:29;;;;;;;12.07;7.35;;;;;;;5.09;74.45;94909.63;5109861;28;20040;-68
2024/03/08 09:10:54;;;;;;;14.77;7.63;;;;;;;5.03;74.19;94905.69;5111082;28;20016;-68
2024/03/08 09:13:20;;;;;;;9.23;6.90;;;;;;;5.03;74.46;94910.00;5109820;28;20417;-67
2024/03/08 09:15:45;;;;;;;8.15;5.70;;;;;;;5.24;74.06;94911.31;5092830;28;20113;-67
2024/03/08 09:18:10;;;;;;;17.50;9.73;;;;;;;5.15;74.21;94909.25;5092616;28;20035;-68
2024/03/08 09:20:36;;;;;;;10.07;6.22;;;;;;;5.15;73.77;94919.56;5111658;28;20027;-67
2024/03/08 09:23:03;;;;;;;8.55;6.18;;;;;;;5.48;72.23;94905.56;5096884;28;20046;-68
2024/03/08 09:25:29;;;;;;;8.85;6.43;;;;;;;5.81;70.94;94913.78;5115063;28;20154;-68
2024/03/08 09:27:54;;;;;;;10.20;5.68;;;;;;;5.85;72.01;94913.59;5113602;28;20024;-68
2024/03/08 09:30:21;;;;;;;7.40;5.20;;;;;;;5.86;71.09;94899.78;5114845;28;20043;-68
2024/03/08 09:32:47;;;;;;;7.07;5.55;;;;;;;6.00;70.51;94912.66;5096682;28;20451;-68
2024/03/08 09:35:12;;;;;;;6.35;4.78;;;;;;;5.75;70.27;94914.16;5114806;28;20031;-68
2024/03/08 09:37:37;;;;;;;6.85;4.65;;;;;;;5.80;70.62;94901.84;5113402;28;20076;-68
2024/03/08 09:40:09;;;;;;;5.53;4.00;;;;;;;5.89;69.02;94915.06;5096308;28;20020;-68
2024/03/08 09:42:37;;;;;;;9.65;5.55;;;;;;;5.78;69.31;94900.28;5113685;28;20032;-68
2024/03/08 09:45:04;;;;;;;7.55;6.07;;;;;;;6.01;70.33;94898.84;5096710;28;20047;-68
2024/03/08 09:47:33;;;;;;;6.88;4.63;;;;;;;5.95;69.72;94896.66;5113279;28;20023;-68
2024/03/08 09:49:59;;;;;;;7.93;5.05;;;;;;;6.14;67.67;94909.22;5080142;28;20417;-68
2024/03/08 09:52:24;;;;;;;6.78;4.68;;;;;;;6.16;68.23;94897.88;5113157;28;20023;-68
2024/03/08 09:54:49;;;;;;;7.25;4.63;;;;;;;6.29;66.94;94903.06;5096135;28;20027;-68
2024/03/08 09:57:15;;;;;;;7.35;4.88;;;;;;;5.72;68.07;94898.06;5096118;28;20034;-68
2024/03/08 09:59:46;;;;;;;8.30;4.63;;;;;;;5.62;67.70;94902.97;5096213;28;20582;-68
2024/03/08 10:02:14;;;;;;;6.10;4.22;;;;;;;5.96;66.01;94900.88;5113159;28;20031;-68
2024/03/08 10:04:42;;;;;;;9.02;4.25;;;;;;;6.10;65.86;94902.59;5113136;28;20514;-68
2024/03/08 10:07:07;;;;;;;7.75;4.65;;;;;;;6.24;66.75;94899.94;5112977;28;20484;-68
2024/03/08 10:09:33;;;;;;;7.85;4.68;;;;;;;6.01;65.70;94904.81;5095751;28;20039;-68
2024/03/08 10:11:58;;;;;;;7.07;4.32;;;;;;;6.17;66.54;94904.69;5112750;28;20026;-68
2024/03/08 10:14:26;;;;;;;6.03;4.25;;;;;;;6.20;67.38;94899.31;5112962;28;20110;-68
2024/03/08 10:16:52;;;;;;;6.40;4.57;;;;;;;6.43;65.82;94905.56;5112677;28;20027;-68
2024/03/08 10:19:17;;;;;;;7.03;4.60;;;;;;;6.38;65.16;94879.25;5114261;28;20480;-68
2024/03/08 10:21:50;;;;;;;6.28;4.38;;;;;;;6.67;64.96;94905.72;5095618;28;20027;-68
2024/03/08 10:24:15;;;;;;;4.47;3.30;;;;;;;6.44;63.40;94903.84;5112456;28;20424;-68
2024/03/08 10:26:43;;;;;;;6.72;4.45;;;;;;;6.34;64.40;94875.22;5114059;28;20028;-68
2024/03/08 10:29:08;;;;;;;8.85;4.65;;;;;;;6.32;65.57;94902.84;5112656;28;20032;-68
2024/03/08 10:31:34;;;;;;;4.40;3.42;;;;;;;6.63;64.48;94900.84;5078591;28;20084;-68
2024/03/08 10:34:00;;;;;;;7.85;4.97;;;;;;;6.58;65.53;94897.78;5111310;28;20054;-68
2024/03/08 10:36:26;;;;;;;5.22;3.38;;;;;;;6.63;63.55;94900.84;5095477;28;20032;-68
2024/03/08 10:38:52;;;;;;;7.97;5.00;;;;;;;6.92;63.13;94897.19;5095194;28;20039;-68
2024/03/08 10:41:18;;;;;;;7.82;4.72;;;;;;;6.78;62.67;94880.97;5112308;28;20031;-69
2024/03/08 10:44:08;;;;;;;3.80;2.90;;;;;;;6.64;62.50;94889.63;5095258;28;20511;-67
2024/03/08 10:46:48;;;;;;;8.13;3.00;;;;;;;6.89;61.63;94892.22;5112085;28;20044;-68
2024/03/08 10:49:17;;;;;;;14.25;6.93;;;;;;;7.41;59.36;94881.84;5112161;28;20039;-68
2024/03/08 10:51:42;;;;;;;6.90;3.15;;;;;;;7.03;61.71;94874.97;5095168;28;20051;-68
2024/03/08 10:54:08;;;;;;;4.03;2.70;;;;;;;6.86;63.61;94878.69;5095056;28;20100;-68
2024/03/08 10:56:34;;;;;;;4.10;2.38;;;;;;;6.88;63.03;94872.50;5113134;28;20087;-68
2024/03/08 10:58:59;;;;;;;4.47;2.50;;;;;;;6.59;62.47;94866.69;5095069;28;20478;-67
2024/03/08 11:01:25;;;;;;;5.32;2.80;;;;;;;6.71;63.58;94868.47;5094894;28;20035;-68
2024/03/08 11:03:53;;;;;;;4.63;2.85;;;;;;;7.06;62.60;94860.09;5112037;28;20409;-68
2024/03/08 11:06:34;;;;;;;4.88;2.65;;;;;;;6.94;61.01;94874.66;5111860;28;20020;-68
2024/03/08 11:08:59;;;;;;;3.50;2.50;;;;;;;6.91;60.63;94872.28;5113138;28;20036;-68
2024/03/08 11:11:30;;;;;;;4.05;2.55;;;;;;;7.31;59.55;94866.16;5111709;28;20416;-68
2024/03/08 11:13:56;;;;;;;3.97;2.80;;;;;;;7.70;58.91;94857.38;5095546;28;20031;-68
2024/03/08 11:16:27;;;;;;;4.03;2.70;;;;;;;7.63;58.64;94855.31;5111409;28;20546;-68
2024/03/08 11:19:04;;;;;;;4.70;2.92;;;;;;;7.42;60.67;94862.84;5112809;28;20047;-68
2024/03/08 11:21:39;;;;;;;3.75;2.72;;;;;;;7.60;59.75;94825.34;5111539;28;20080;-68
2024/03/08 11:24:11;;;;;;;10.18;6.75;;;;;;;7.92;59.97;94864.44;5106396;28;20048;-68
2024/03/08 11:26:37;;;;;;;5.32;3.45;;;;;;;8.24;58.05;94853.50;5112403;28;20031;-68
2024/03/08 11:29:37;;;;;;;3.33;2.58;;;;;;;8.56;56.06;94846.00;5094152;28;20489;-68
2024/03/08 11:32:10;;;;;;;3.53;2.40;;;;;;;8.50;54.79;94852.47;5112283;28;20035;-68
2024/03/08 11:34:35;;;;;;;3.80;2.10;;;;;;;8.09;57.14;94844.28;5110930;28;20122;-68
2024/03/08 11:37:04;;;;;;;3.80;2.40;;;;;;;8.28;59.35;94847.19;5111021;28;20107;-68